TimeCDT,TemperatureF,Dew PointF,Humidity,Sea Level PressureIn,VisibilityMPH,Wind Direction,Wind SpeedMPH,Gust SpeedMPH,PrecipitationIn,Events,Conditions,WindDirDegrees,DateUTC
12:15 AM,80.6,73.4,79,29.91,0.2,South,5.8,-,N/A,,Haze,170,2013-06-26 05:15:00
12:35 AM,80.6,73.4,79,29.92,0.2,SSE,4.6,-,N/A,,Haze,150,2013-06-26 05:35:00
12:55 AM,78.8,73.4,83,29.92,0.2,SSE,5.8,-,N/A,,Haze,160,2013-06-26 05:55:00
1:15 AM,78.8,73.4,83,29.91,0.2,SSE,4.6,-,N/A,,Haze,150,2013-06-26 06:15:00
1:35 AM,77.0,73.4,89,29.90,0.2,SSE,5.8,-,N/A,Fog,Fog,150,2013-06-26 06:35:00
1:55 AM,77.0,73.4,89,29.90,0.2,SSE,4.6,-,N/A,Fog,Fog,160,2013-06-26 06:55:00
2:15 AM,77.0,73.4,89,29.89,0.2,SSE,6.9,-,N/A,Fog,Fog,160,2013-06-26 07:15:00
2:35 AM,78.8,73.4,83,29.88,0.2,SSE,6.9,-,N/A,,Haze,160,2013-06-26 07:35:00
2:55 AM,78.8,73.4,83,29.88,0.2,South,8.1,-,N/A,,Haze,170,2013-06-26 07:55:00
3:15 AM,78.8,73.4,83,29.87,0.2,South,8.1,-,N/A,,Haze,180,2013-06-26 08:15:00
3:35 AM,78.8,73.4,83,29.87,1.0,South,9.2,-,N/A,,Haze,190,2013-06-26 08:35:00
3:55 AM,78.8,71.6,78,29.86,2.0,South,10.4,-,N/A,,Haze,180,2013-06-26 08:55:00
4:15 AM,78.8,73.4,83,29.86,3.0,South,9.2,-,N/A,,Haze,190,2013-06-26 09:15:00
4:35 AM,78.8,71.6,78,29.87,10.0,South,8.1,16.1,N/A,,Scattered Clouds,190,2013-06-26 09:35:00
4:55 AM,78.8,71.6,78,29.87,10.0,South,9.2,-,N/A,Thunderstorm,Scattered Clouds,180,2013-06-26 09:55:00
5:15 AM,77.0,71.6,83,29.87,10.0,South,10.4,-,N/A,,Scattered Clouds,180,2013-06-26 10:15:00
5:35 AM,77.0,71.6,83,29.87,10.0,South,9.2,-,N/A,,Mostly Cloudy,180,2013-06-26 10:35:00
5:55 AM,77.0,71.6,83,29.87,7.0,South,9.2,-,N/A,,Mostly Cloudy,180,2013-06-26 10:55:00
6:15 AM,77.0,71.6,83,29.87,10.0,South,11.5,-,N/A,,Scattered Clouds,180,2013-06-26 11:15:00
6:35 AM,78.8,71.6,78,29.87,10.0,South,11.5,17.3,N/A,,Scattered Clouds,180,2013-06-26 11:35:00
6:55 AM,78.8,71.6,78,29.86,10.0,South,11.5,-,N/A,Thunderstorm,Scattered Clouds,180,2013-06-26 11:55:00
7:15 AM,78.8,71.6,78,29.87,10.0,South,11.5,-,N/A,Thunderstorm,Clear,190,2013-06-26 12:15:00
7:35 AM,75.2,71.6,89,29.90,5.0,South,11.5,16.1,0.13,Rain-Thunderstorm,Heavy Thunderstorms and Rain,190,2013-06-26 12:35:00
7:55 AM,73.4,71.6,94,29.90,10.0,WSW,4.6,-,0.30,Rain-Thunderstorm,Thunderstorms and Rain,250,2013-06-26 12:55:00
8:15 AM,75.2,71.6,89,29.88,10.0,South,12.7,-,0.01,Rain,Light Rain,170,2013-06-26 13:15:00
8:35 AM,75.2,71.6,89,29.89,7.0,SSE,9.2,-,0.01,Thunderstorm,Mostly Cloudy,160,2013-06-26 13:35:00
8:55 AM,75.2,71.6,89,29.88,7.0,SSE,8.1,-,0.01,Thunderstorm,Overcast,150,2013-06-26 13:55:00
9:15 AM,75.2,73.4,94,29.88,5.0,SSE,10.4,-,N/A,,Scattered Clouds,150,2013-06-26 14:15:00
9:55 AM,77.0,73.4,89,29.85,4.0,SSE,11.5,-,N/A,,Clear,160,2013-06-26 14:55:00
10:15 AM,78.8,75.2,89,29.85,5.0,South,13.8,18.4,N/A,,Clear,170,2013-06-26 15:15:00
10:35 AM,80.6,75.2,84,29.85,7.0,South,16.1,19.6,N/A,,Clear,170,2013-06-26 15:35:00
10:55 AM,80.6,75.2,84,29.85,10.0,South,13.8,25.3,N/A,,Scattered Clouds,190,2013-06-26 15:55:00
11:15 AM,80.6,75.2,84,29.84,10.0,South,17.3,23.0,N/A,,Mostly Cloudy,190,2013-06-26 16:15:00
11:35 AM,82.4,77.0,84,29.84,10.0,SSW,13.8,24.2,N/A,,Scattered Clouds,200,2013-06-26 16:35:00
11:55 AM,84.2,77.0,79,29.83,10.0,SSW,15.0,24.2,N/A,,Clear,210,2013-06-26 16:55:00
12:15 PM,84.2,77.0,79,29.83,10.0,SSW,10.4,19.6,N/A,,Scattered Clouds,200,2013-06-26 17:15:00
12:35 PM,86.0,77.0,74,29.83,10.0,SSW,18.4,24.2,N/A,,Scattered Clouds,200,2013-06-26 17:35:00
12:55 PM,86.0,78.8,79,29.82,10.0,SSW,16.1,23.0,N/A,,Scattered Clouds,200,2013-06-26 17:55:00
1:15 PM,86.0,77.0,74,29.82,10.0,SSW,19.6,27.6,N/A,,Scattered Clouds,210,2013-06-26 18:15:00
1:35 PM,87.8,78.8,75,29.81,10.0,SW,13.8,23.0,N/A,,Clear,220,2013-06-26 18:35:00
1:55 PM,87.8,78.8,75,29.80,10.0,SSW,17.3,21.9,N/A,,Scattered Clouds,210,2013-06-26 18:55:00
2:15 PM,89.6,78.8,70,29.80,10.0,SW,10.4,19.6,N/A,,Scattered Clouds,220,2013-06-26 19:15:00
2:35 PM,89.6,78.8,70,29.79,10.0,SSW,15.0,20.7,N/A,,Scattered Clouds,210,2013-06-26 19:35:00
2:55 PM,89.6,78.8,70,29.79,10.0,SW,10.4,19.6,N/A,,Scattered Clouds,220,2013-06-26 19:55:00
3:15 PM,89.6,78.8,70,29.78,10.0,SW,12.7,-,N/A,,Scattered Clouds,230,2013-06-26 20:15:00
3:35 PM,89.6,78.8,70,29.77,10.0,SW,11.5,20.7,N/A,,Clear,230,2013-06-26 20:35:00
3:55 PM,89.6,78.8,70,29.76,10.0,SW,12.7,20.7,N/A,,Clear,230,2013-06-26 20:55:00
4:15 PM,91.4,78.8,66,29.75,10.0,SW,12.7,16.1,N/A,,Clear,220,2013-06-26 21:15:00
4:35 PM,91.4,78.8,66,29.76,10.0,SW,8.1,17.3,N/A,,Clear,230,2013-06-26 21:35:00
4:55 PM,91.4,78.8,66,29.77,10.0,SW,9.2,19.6,N/A,,Clear,230,2013-06-26 21:55:00
5:15 PM,89.6,78.8,70,29.77,10.0,WSW,8.1,-,N/A,,Scattered Clouds,240,2013-06-26 22:15:00
5:35 PM,89.6,78.8,70,29.75,10.0,SW,6.9,-,N/A,,Clear,220,2013-06-26 22:35:00
5:55 PM,87.8,78.8,75,29.76,10.0,WSW,5.8,-,N/A,Rain-Thunderstorm,Light Thunderstorms and Rain,250,2013-06-26 22:55:00
6:15 PM,75.2,71.6,89,29.81,1.2,NW,16.1,33.4,0.38,Rain-Thunderstorm,Heavy Thunderstorms and Rain,320,2013-06-26 23:15:00
6:35 PM,75.2,71.6,89,29.77,10.0,South,6.9,-,0.48,Rain-Thunderstorm,Light Thunderstorms and Rain,190,2013-06-26 23:35:00
6:55 PM,75.2,71.6,89,29.80,10.0,South,5.8,-,0.48,Thunderstorm,Scattered Clouds,180,2013-06-26 23:55:00
7:15 PM,75.2,73.4,94,29.75,10.0,West,4.6,-,N/A,Thunderstorm,Mostly Cloudy,280,2013-06-27 00:15:00
7:35 PM,75.2,73.4,94,29.76,10.0,SSW,3.5,-,N/A,,Scattered Clouds,210,2013-06-27 00:35:00
7:55 PM,75.2,73.4,94,29.75,10.0,WSW,3.5,-,N/A,Rain,Light Rain,250,2013-06-27 00:55:00
8:15 PM,77.0,73.4,89,29.76,10.0,Calm,Calm,-,N/A,,Clear,0,2013-06-27 01:15:00
8:35 PM,77.0,73.4,89,29.77,10.0,Calm,Calm,-,N/A,,Scattered Clouds,0,2013-06-27 01:35:00
8:55 PM,77.0,73.4,89,29.78,10.0,Calm,Calm,-,N/A,,Scattered Clouds,0,2013-06-27 01:55:00
9:15 PM,77.0,73.4,89,29.78,10.0,Calm,Calm,-,N/A,,Clear,0,2013-06-27 02:15:00
9:35 PM,77.0,73.4,89,29.78,10.0,WSW,3.5,-,N/A,,Scattered Clouds,240,2013-06-27 02:35:00
9:55 PM,78.8,75.2,89,29.78,10.0,SW,3.5,-,N/A,,Scattered Clouds,230,2013-06-27 02:55:00
10:15 PM,78.8,75.2,89,29.79,10.0,Calm,Calm,-,N/A,,Clear,0,2013-06-27 03:15:00
10:35 PM,78.8,75.2,89,29.80,10.0,Calm,Calm,-,N/A,,Clear,0,2013-06-27 03:35:00
10:55 PM,78.8,75.2,89,29.81,10.0,Calm,Calm,-,N/A,,Mostly Cloudy,0,2013-06-27 03:55:00
11:15 PM,78.8,75.2,89,29.82,10.0,Calm,Calm,-,N/A,,Mostly Cloudy,0,2013-06-27 04:15:00
11:35 PM,78.8,75.2,89,29.82,10.0,Calm,Calm,-,N/A,,Scattered Clouds,0,2013-06-27 04:35:00
11:55 PM,78.8,75.2,89,29.82,10.0,West,4.6,-,N/A,,Clear,260,2013-06-27 04:55:00